sensor_id;sensor_type;location;lat;lon;timestamp;temperature;humidity
52267;DHT22;38223;50.940;4.034;2022-08-14T00:02:10;24.60;59.30
52267;DHT22;38223;50.940;4.034;2022-08-14T00:04:44;24.50;59.40
52267;DHT22;38223;50.940;4.034;2022-08-14T00:07:13;24.60;59.30
52267;DHT22;38223;50.940;4.034;2022-08-14T00:09:43;24.60;59.40
52267;DHT22;38223;50.940;4.034;2022-08-14T00:12:14;24.70;59.40
52267;DHT22;38223;50.940;4.034;2022-08-14T00:14:50;24.60;59.50
52267;DHT22;38223;50.940;4.034;2022-08-14T00:17:21;24.70;59.30
52267;DHT22;38223;50.940;4.034;2022-08-14T00:19:52;24.50;59.50
52267;DHT22;38223;50.940;4.034;2022-08-14T00:22:20;24.50;59.80
52267;DHT22;38223;50.940;4.034;2022-08-14T00:24:55;24.40;60.30
52267;DHT22;38223;50.940;4.034;2022-08-14T00:27:25;24.30;60.70
52267;DHT22;38223;50.940;4.034;2022-08-14T00:29:59;24.20;61.20
52267;DHT22;38223;50.940;4.034;2022-08-14T00:32:27;24.20;60.80
52267;DHT22;38223;50.940;4.034;2022-08-14T00:34:57;24.10;61.20
52267;DHT22;38223;50.940;4.034;2022-08-14T00:37:31;24.00;61.30
52267;DHT22;38223;50.940;4.034;2022-08-14T00:40:05;24.00;61.50
52267;DHT22;38223;50.940;4.034;2022-08-14T00:42:40;24.00;61.60
52267;DHT22;38223;50.940;4.034;2022-08-14T00:45:13;24.00;61.60
52267;DHT22;38223;50.940;4.034;2022-08-14T00:47:47;23.80;62.20
52267;DHT22;38223;50.940;4.034;2022-08-14T00:50:25;23.90;62.00
52267;DHT22;38223;50.940;4.034;2022-08-14T00:52:55;24.00;61.60
52267;DHT22;38223;50.940;4.034;2022-08-14T00:55:27;24.00;61.80
52267;DHT22;38223;50.940;4.034;2022-08-14T00:58:02;24.00;61.70
52267;DHT22;38223;50.940;4.034;2022-08-14T01:00:49;24.00;62.00
52267;DHT22;38223;50.940;4.034;2022-08-14T01:03:25;23.90;62.20
52267;DHT22;38223;50.940;4.034;2022-08-14T01:05:58;23.80;62.80
52267;DHT22;38223;50.940;4.034;2022-08-14T01:08:35;23.80;62.50
52267;DHT22;38223;50.940;4.034;2022-08-14T01:11:07;23.80;62.80
52267;DHT22;38223;50.940;4.034;2022-08-14T01:13:39;23.80;62.80
52267;DHT22;38223;50.940;4.034;2022-08-14T01:16:16;23.80;63.00
52267;DHT22;38223;50.940;4.034;2022-08-14T01:18:59;23.70;63.10
52267;DHT22;38223;50.940;4.034;2022-08-14T01:21:50;23.70;63.60
52267;DHT22;38223;50.940;4.034;2022-08-14T01:24:25;23.60;63.80
52267;DHT22;38223;50.940;4.034;2022-08-14T01:26:56;23.60;63.70
52267;DHT22;38223;50.940;4.034;2022-08-14T01:29:30;23.60;63.90
52267;DHT22;38223;50.940;4.034;2022-08-14T01:34:54;23.60;64.10
52267;DHT22;38223;50.940;4.034;2022-08-14T01:37:27;23.50;64.30
52267;DHT22;38223;50.940;4.034;2022-08-14T01:40:00;23.40;64.60
52267;DHT22;38223;50.940;4.034;2022-08-14T01:45:17;23.30;65.40
52267;DHT22;38223;50.940;4.034;2022-08-14T01:47:49;23.20;65.60
52267;DHT22;38223;50.940;4.034;2022-08-14T01:50:21;23.30;65.70
52267;DHT22;38223;50.940;4.034;2022-08-14T01:52:54;23.30;65.60
52267;DHT22;38223;50.940;4.034;2022-08-14T01:55:26;23.30;65.60
52267;DHT22;38223;50.940;4.034;2022-08-14T01:58:02;23.40;65.60
52267;DHT22;38223;50.940;4.034;2022-08-14T02:00:34;23.30;65.80
52267;DHT22;38223;50.940;4.034;2022-08-14T02:03:09;23.30;66.30
52267;DHT22;38223;50.940;4.034;2022-08-14T02:05:44;23.40;66.60
52267;DHT22;38223;50.940;4.034;2022-08-14T02:08:13;23.40;66.60
52267;DHT22;38223;50.940;4.034;2022-08-14T02:10:47;23.30;67.00
52267;DHT22;38223;50.940;4.034;2022-08-14T02:13:20;23.40;67.20
52267;DHT22;38223;50.940;4.034;2022-08-14T02:15:52;23.40;67.20
52267;DHT22;38223;50.940;4.034;2022-08-14T02:18:20;23.30;66.80
52267;DHT22;38223;50.940;4.034;2022-08-14T02:20:50;23.30;67.60
52267;DHT22;38223;50.940;4.034;2022-08-14T02:23:21;23.20;68.10
52267;DHT22;38223;50.940;4.034;2022-08-14T02:25:56;23.10;68.20
52267;DHT22;38223;50.940;4.034;2022-08-14T02:28:27;23.10;68.10
52267;DHT22;38223;50.940;4.034;2022-08-14T02:31:00;23.10;68.20
52267;DHT22;38223;50.940;4.034;2022-08-14T02:33:30;23.20;68.10
52267;DHT22;38223;50.940;4.034;2022-08-14T02:36:03;23.20;68.00
52267;DHT22;38223;50.940;4.034;2022-08-14T02:38:35;23.20;68.10
52267;DHT22;38223;50.940;4.034;2022-08-14T02:41:07;23.20;68.40
52267;DHT22;38223;50.940;4.034;2022-08-14T02:43:39;23.20;68.50
52267;DHT22;38223;50.940;4.034;2022-08-14T02:46:13;23.10;68.70
52267;DHT22;38223;50.940;4.034;2022-08-14T02:48:43;23.10;69.20
52267;DHT22;38223;50.940;4.034;2022-08-14T02:51:18;23.10;68.90
52267;DHT22;38223;50.940;4.034;2022-08-14T02:53:48;23.20;68.60
52267;DHT22;38223;50.940;4.034;2022-08-14T02:56:23;23.30;68.10
52267;DHT22;38223;50.940;4.034;2022-08-14T03:01:47;23.30;67.70
52267;DHT22;38223;50.940;4.034;2022-08-14T03:04:19;23.50;67.40
52267;DHT22;38223;50.940;4.034;2022-08-14T03:06:54;23.40;66.60
52267;DHT22;38223;50.940;4.034;2022-08-14T03:09:26;23.40;66.60
52267;DHT22;38223;50.940;4.034;2022-08-14T03:11:58;23.50;66.00
52267;DHT22;38223;50.940;4.034;2022-08-14T03:14:30;23.60;65.50
52267;DHT22;38223;50.940;4.034;2022-08-14T03:17:08;23.60;65.40
52267;DHT22;38223;50.940;4.034;2022-08-14T03:19:37;23.90;64.50
52267;DHT22;38223;50.940;4.034;2022-08-14T03:22:09;23.90;63.90
52267;DHT22;38223;50.940;4.034;2022-08-14T03:24:41;23.60;65.50
52267;DHT22;38223;50.940;4.034;2022-08-14T03:27:15;23.50;66.00
52267;DHT22;38223;50.940;4.034;2022-08-14T03:29:50;23.30;66.50
52267;DHT22;38223;50.940;4.034;2022-08-14T03:32:20;23.20;67.20
52267;DHT22;38223;50.940;4.034;2022-08-14T03:34:50;23.10;67.60
52267;DHT22;38223;50.940;4.034;2022-08-14T03:37:22;23.00;67.80
52267;DHT22;38223;50.940;4.034;2022-08-14T03:39:58;22.90;67.80
52267;DHT22;38223;50.940;4.034;2022-08-14T03:42:30;23.00;67.70
52267;DHT22;38223;50.940;4.034;2022-08-14T03:45:01;23.10;67.00
52267;DHT22;38223;50.940;4.034;2022-08-14T03:47:30;23.10;66.00
52267;DHT22;38223;50.940;4.034;2022-08-14T03:50:01;23.20;65.30
52267;DHT22;38223;50.940;4.034;2022-08-14T03:52:33;23.20;64.70
52267;DHT22;38223;50.940;4.034;2022-08-14T03:55:09;23.20;64.40
52267;DHT22;38223;50.940;4.034;2022-08-14T03:57:40;23.20;65.20
52267;DHT22;38223;50.940;4.034;2022-08-14T04:00:12;23.20;66.30
52267;DHT22;38223;50.940;4.034;2022-08-14T04:02:44;23.10;67.60
52267;DHT22;38223;50.940;4.034;2022-08-14T04:05:17;23.00;69.50
52267;DHT22;38223;50.940;4.034;2022-08-14T04:07:46;23.00;70.10
52267;DHT22;38223;50.940;4.034;2022-08-14T04:10:22;23.00;70.40
52267;DHT22;38223;50.940;4.034;2022-08-14T04:12:53;22.90;70.90
52267;DHT22;38223;50.940;4.034;2022-08-14T04:15:28;22.80;71.10
52267;DHT22;38223;50.940;4.034;2022-08-14T04:18:04;22.80;71.40
52267;DHT22;38223;50.940;4.034;2022-08-14T04:20:36;22.70;72.30
52267;DHT22;38223;50.940;4.034;2022-08-14T04:23:10;22.70;72.10
52267;DHT22;38223;50.940;4.034;2022-08-14T04:25:39;22.60;72.30
52267;DHT22;38223;50.940;4.034;2022-08-14T04:28:13;22.60;72.90
52267;DHT22;38223;50.940;4.034;2022-08-14T04:30:43;22.60;73.30
52267;DHT22;38223;50.940;4.034;2022-08-14T04:33:24;22.50;73.90
52267;DHT22;38223;50.940;4.034;2022-08-14T04:36:02;22.50;73.80
52267;DHT22;38223;50.940;4.034;2022-08-14T04:38:35;22.30;74.60
52267;DHT22;38223;50.940;4.034;2022-08-14T04:41:25;22.00;75.00
52267;DHT22;38223;50.940;4.034;2022-08-14T04:44:14;21.80;75.60
52267;DHT22;38223;50.940;4.034;2022-08-14T04:46:43;21.70;75.10
52267;DHT22;38223;50.940;4.034;2022-08-14T04:49:13;21.80;74.60
52267;DHT22;38223;50.940;4.034;2022-08-14T04:51:44;21.80;74.70
52267;DHT22;38223;50.940;4.034;2022-08-14T04:54:23;21.80;74.70
52267;DHT22;38223;50.940;4.034;2022-08-14T04:56:59;21.80;74.20
52267;DHT22;38223;50.940;4.034;2022-08-14T04:59:32;21.80;74.50
52267;DHT22;38223;50.940;4.034;2022-08-14T05:02:04;21.90;74.00
52267;DHT22;38223;50.940;4.034;2022-08-14T05:04:36;21.80;74.20
52267;DHT22;38223;50.940;4.034;2022-08-14T05:07:10;21.70;74.40
52267;DHT22;38223;50.940;4.034;2022-08-14T05:09:42;21.80;74.50
52267;DHT22;38223;50.940;4.034;2022-08-14T05:12:15;21.80;74.40
52267;DHT22;38223;50.940;4.034;2022-08-14T05:14:46;21.80;74.40
52267;DHT22;38223;50.940;4.034;2022-08-14T05:17:16;21.90;74.00
52267;DHT22;38223;50.940;4.034;2022-08-14T05:19:49;21.80;74.20
52267;DHT22;38223;50.940;4.034;2022-08-14T05:22:19;21.70;74.20
52267;DHT22;38223;50.940;4.034;2022-08-14T05:24:51;21.70;74.90
52267;DHT22;38223;50.940;4.034;2022-08-14T05:27:23;21.60;75.00
52267;DHT22;38223;50.940;4.034;2022-08-14T05:29:58;21.60;75.10
52267;DHT22;38223;50.940;4.034;2022-08-14T05:32:29;21.50;75.90
52267;DHT22;38223;50.940;4.034;2022-08-14T05:35:05;21.60;75.90
52267;DHT22;38223;50.940;4.034;2022-08-14T05:37:39;21.80;75.30
52267;DHT22;38223;50.940;4.034;2022-08-14T05:40:09;22.00;74.60
52267;DHT22;38223;50.940;4.034;2022-08-14T05:42:41;22.00;74.40
52267;DHT22;38223;50.940;4.034;2022-08-14T05:45:10;22.00;74.30
52267;DHT22;38223;50.940;4.034;2022-08-14T05:47:41;22.20;73.70
52267;DHT22;38223;50.940;4.034;2022-08-14T05:50:16;22.30;73.20
52267;DHT22;38223;50.940;4.034;2022-08-14T05:52:47;22.30;73.90
52267;DHT22;38223;50.940;4.034;2022-08-14T05:55:23;22.30;74.10
52267;DHT22;38223;50.940;4.034;2022-08-14T05:58:00;22.30;73.80
52267;DHT22;38223;50.940;4.034;2022-08-14T06:00:39;22.20;74.40
52267;DHT22;38223;50.940;4.034;2022-08-14T06:03:08;22.20;74.70
52267;DHT22;38223;50.940;4.034;2022-08-14T06:05:40;22.20;74.60
52267;DHT22;38223;50.940;4.034;2022-08-14T06:08:22;22.30;74.80
52267;DHT22;38223;50.940;4.034;2022-08-14T06:10:59;22.40;74.30
52267;DHT22;38223;50.940;4.034;2022-08-14T06:13:28;22.50;74.50
52267;DHT22;38223;50.940;4.034;2022-08-14T06:16:00;22.60;73.80
52267;DHT22;38223;50.940;4.034;2022-08-14T06:18:33;22.50;73.90
52267;DHT22;38223;50.940;4.034;2022-08-14T06:21:08;22.40;74.30
52267;DHT22;38223;50.940;4.034;2022-08-14T06:23:41;22.50;74.20
52267;DHT22;38223;50.940;4.034;2022-08-14T06:26:11;22.60;73.90
52267;DHT22;38223;50.940;4.034;2022-08-14T06:28:43;22.80;73.80
52267;DHT22;38223;50.940;4.034;2022-08-14T06:31:14;22.80;72.20
52267;DHT22;38223;50.940;4.034;2022-08-14T06:33:45;22.80;72.20
52267;DHT22;38223;50.940;4.034;2022-08-14T06:36:20;22.80;72.10
52267;DHT22;38223;50.940;4.034;2022-08-14T06:38:53;22.90;71.80
52267;DHT22;38223;50.940;4.034;2022-08-14T06:41:23;23.10;71.60
52267;DHT22;38223;50.940;4.034;2022-08-14T06:43:55;23.20;71.00
52267;DHT22;38223;50.940;4.034;2022-08-14T06:46:29;23.50;69.90
52267;DHT22;38223;50.940;4.034;2022-08-14T06:49:00;23.90;65.50
52267;DHT22;38223;50.940;4.034;2022-08-14T06:51:31;24.20;64.30
52267;DHT22;38223;50.940;4.034;2022-08-14T06:54:07;23.90;63.90
52267;DHT22;38223;50.940;4.034;2022-08-14T06:56:36;23.90;65.60
52267;DHT22;38223;50.940;4.034;2022-08-14T06:59:08;24.20;63.50
52267;DHT22;38223;50.940;4.034;2022-08-14T07:01:39;24.50;62.80
52267;DHT22;38223;50.940;4.034;2022-08-14T07:04:26;24.70;62.30
52267;DHT22;38223;50.940;4.034;2022-08-14T07:07:12;24.80;61.40
52267;DHT22;38223;50.940;4.034;2022-08-14T07:09:41;24.90;61.60
52267;DHT22;38223;50.940;4.034;2022-08-14T07:12:15;24.80;62.00
52267;DHT22;38223;50.940;4.034;2022-08-14T07:14:47;24.70;62.30
52267;DHT22;38223;50.940;4.034;2022-08-14T07:17:17;24.80;62.40
52267;DHT22;38223;50.940;4.034;2022-08-14T07:19:49;24.90;62.60
52267;DHT22;38223;50.940;4.034;2022-08-14T07:22:18;24.60;63.20
52267;DHT22;38223;50.940;4.034;2022-08-14T07:24:48;24.50;64.10
52267;DHT22;38223;50.940;4.034;2022-08-14T07:27:21;24.60;64.10
52267;DHT22;38223;50.940;4.034;2022-08-14T07:29:50;24.70;63.70
52267;DHT22;38223;50.940;4.034;2022-08-14T07:32:29;24.80;63.50
52267;DHT22;38223;50.940;4.034;2022-08-14T07:35:00;24.90;63.00
52267;DHT22;38223;50.940;4.034;2022-08-14T07:37:29;24.80;63.60
52267;DHT22;38223;50.940;4.034;2022-08-14T07:40:02;24.80;63.50
52267;DHT22;38223;50.940;4.034;2022-08-14T07:42:35;24.90;63.50
52267;DHT22;38223;50.940;4.034;2022-08-14T07:45:08;24.90;63.50
52267;DHT22;38223;50.940;4.034;2022-08-14T07:47:41;24.90;63.40
52267;DHT22;38223;50.940;4.034;2022-08-14T07:50:18;25.00;63.30
52267;DHT22;38223;50.940;4.034;2022-08-14T07:52:50;25.10;62.70
52267;DHT22;38223;50.940;4.034;2022-08-14T07:55:22;25.30;62.40
52267;DHT22;38223;50.940;4.034;2022-08-14T07:57:54;25.50;61.90
52267;DHT22;38223;50.940;4.034;2022-08-14T08:00:25;25.60;61.60
52267;DHT22;38223;50.940;4.034;2022-08-14T08:02:58;25.70;61.70
52267;DHT22;38223;50.940;4.034;2022-08-14T08:05:29;25.90;61.00
52267;DHT22;38223;50.940;4.034;2022-08-14T08:08:03;26.10;60.60
52267;DHT22;38223;50.940;4.034;2022-08-14T08:10:36;26.20;59.90
52267;DHT22;38223;50.940;4.034;2022-08-14T08:13:12;26.30;58.40
52267;DHT22;38223;50.940;4.034;2022-08-14T08:15:48;26.50;57.80
52267;DHT22;38223;50.940;4.034;2022-08-14T08:18:21;26.60;57.50
52267;DHT22;38223;50.940;4.034;2022-08-14T08:20:54;26.70;57.20
52267;DHT22;38223;50.940;4.034;2022-08-14T08:23:27;26.90;56.70
52267;DHT22;38223;50.940;4.034;2022-08-14T08:26:00;27.00;56.70
52267;DHT22;38223;50.940;4.034;2022-08-14T08:28:32;27.30;56.20
52267;DHT22;38223;50.940;4.034;2022-08-14T08:31:05;27.30;56.20
52267;DHT22;38223;50.940;4.034;2022-08-14T08:33:42;27.30;56.40
52267;DHT22;38223;50.940;4.034;2022-08-14T08:36:10;27.30;56.70
52267;DHT22;38223;50.940;4.034;2022-08-14T08:38:41;27.30;56.30
52267;DHT22;38223;50.940;4.034;2022-08-14T08:41:17;27.40;56.00
52267;DHT22;38223;50.940;4.034;2022-08-14T08:43:46;27.40;56.20
52267;DHT22;38223;50.940;4.034;2022-08-14T08:46:23;27.40;56.10
52267;DHT22;38223;50.940;4.034;2022-08-14T08:48:57;27.50;55.80
52267;DHT22;38223;50.940;4.034;2022-08-14T08:51:35;27.60;55.20
52267;DHT22;38223;50.940;4.034;2022-08-14T08:54:12;27.70;54.80
52267;DHT22;38223;50.940;4.034;2022-08-14T08:56:49;27.80;54.10
52267;DHT22;38223;50.940;4.034;2022-08-14T08:59:32;27.80;53.80
52267;DHT22;38223;50.940;4.034;2022-08-14T09:02:06;27.90;53.30
52267;DHT22;38223;50.940;4.034;2022-08-14T09:04:43;28.10;52.50
52267;DHT22;38223;50.940;4.034;2022-08-14T09:07:15;28.20;52.10
52267;DHT22;38223;50.940;4.034;2022-08-14T09:09:45;28.20;52.20
52267;DHT22;38223;50.940;4.034;2022-08-14T09:12:19;28.30;52.40
52267;DHT22;38223;50.940;4.034;2022-08-14T09:14:50;28.40;51.80
52267;DHT22;38223;50.940;4.034;2022-08-14T09:17:23;28.80;53.00
52267;DHT22;38223;50.940;4.034;2022-08-14T09:19:54;29.30;50.90
52267;DHT22;38223;50.940;4.034;2022-08-14T09:22:24;29.20;49.30
52267;DHT22;38223;50.940;4.034;2022-08-14T09:24:56;29.20;49.10
52267;DHT22;38223;50.940;4.034;2022-08-14T09:27:27;29.30;48.40
52267;DHT22;38223;50.940;4.034;2022-08-14T09:30:02;29.30;47.90
52267;DHT22;38223;50.940;4.034;2022-08-14T09:32:38;29.30;47.90
52267;DHT22;38223;50.940;4.034;2022-08-14T09:35:14;29.30;47.30
52267;DHT22;38223;50.940;4.034;2022-08-14T09:38:04;29.30;47.10
52267;DHT22;38223;50.940;4.034;2022-08-14T09:40:49;29.40;47.70
52267;DHT22;38223;50.940;4.034;2022-08-14T09:43:34;29.80;47.20
52267;DHT22;38223;50.940;4.034;2022-08-14T09:46:07;30.00;45.80
52267;DHT22;38223;50.940;4.034;2022-08-14T09:48:39;30.20;44.60
52267;DHT22;38223;50.940;4.034;2022-08-14T09:51:23;30.10;44.90
52267;DHT22;38223;50.940;4.034;2022-08-14T09:53:58;29.70;45.10
52267;DHT22;38223;50.940;4.034;2022-08-14T09:56:25;29.70;45.80
52267;DHT22;38223;50.940;4.034;2022-08-14T09:58:56;29.80;45.90
52267;DHT22;38223;50.940;4.034;2022-08-14T10:04:21;30.70;43.20
52267;DHT22;38223;50.940;4.034;2022-08-14T10:07:14;30.80;42.20
52267;DHT22;38223;50.940;4.034;2022-08-14T10:09:48;30.70;42.60
52267;DHT22;38223;50.940;4.034;2022-08-14T10:12:48;30.50;42.20
52267;DHT22;38223;50.940;4.034;2022-08-14T10:15:02;30.30;42.90
52267;DHT22;38223;50.940;4.034;2022-08-14T10:17:29;30.30;42.50
52267;DHT22;38223;50.940;4.034;2022-08-14T10:20:02;30.40;42.50
52267;DHT22;38223;50.940;4.034;2022-08-14T10:22:29;30.50;42.10
52267;DHT22;38223;50.940;4.034;2022-08-14T10:25:13;30.70;41.70
52267;DHT22;38223;50.940;4.034;2022-08-14T10:27:55;30.60;41.60
52267;DHT22;38223;50.940;4.034;2022-08-14T10:30:19;30.60;41.80
52267;DHT22;38223;50.940;4.034;2022-08-14T10:32:53;30.80;41.50
52267;DHT22;38223;50.940;4.034;2022-08-14T10:35:22;30.80;41.90
52267;DHT22;38223;50.940;4.034;2022-08-14T10:37:59;30.60;41.70
52267;DHT22;38223;50.940;4.034;2022-08-14T10:40:32;30.70;42.00
52267;DHT22;38223;50.940;4.034;2022-08-14T10:43:14;30.50;42.60
52267;DHT22;38223;50.940;4.034;2022-08-14T10:45:34;30.70;41.10
52267;DHT22;38223;50.940;4.034;2022-08-14T10:48:12;30.90;41.10
52267;DHT22;38223;50.940;4.034;2022-08-14T10:50:40;30.80;41.70
52267;DHT22;38223;50.940;4.034;2022-08-14T10:53:15;30.60;41.90
52267;DHT22;38223;50.940;4.034;2022-08-14T10:55:44;30.40;42.30
52267;DHT22;38223;50.940;4.034;2022-08-14T10:58:25;30.40;42.20
52267;DHT22;38223;50.940;4.034;2022-08-14T11:00:56;30.30;42.50
52267;DHT22;38223;50.940;4.034;2022-08-14T11:03:38;30.20;42.40
52267;DHT22;38223;50.940;4.034;2022-08-14T11:06:17;30.20;42.40
52267;DHT22;38223;50.940;4.034;2022-08-14T11:08:52;30.20;41.80
52267;DHT22;38223;50.940;4.034;2022-08-14T11:11:23;30.50;41.70
52267;DHT22;38223;50.940;4.034;2022-08-14T11:13:56;30.80;41.40
52267;DHT22;38223;50.940;4.034;2022-08-14T11:16:28;31.00;41.10
52267;DHT22;38223;50.940;4.034;2022-08-14T11:18:56;31.20;40.40
52267;DHT22;38223;50.940;4.034;2022-08-14T11:21:28;31.40;39.20
52267;DHT22;38223;50.940;4.034;2022-08-14T11:24:04;31.60;39.20
52267;DHT22;38223;50.940;4.034;2022-08-14T11:26:36;31.80;38.90
52267;DHT22;38223;50.940;4.034;2022-08-14T11:29:07;31.90;39.00
52267;DHT22;38223;50.940;4.034;2022-08-14T11:31:43;31.60;39.40
52267;DHT22;38223;50.940;4.034;2022-08-14T11:34:14;31.60;39.40
52267;DHT22;38223;50.940;4.034;2022-08-14T11:37:08;31.30;40.40
52267;DHT22;38223;50.940;4.034;2022-08-14T11:39:40;31.60;40.20
52267;DHT22;38223;50.940;4.034;2022-08-14T11:42:21;32.00;40.20
52267;DHT22;38223;50.940;4.034;2022-08-14T11:44:55;31.90;40.20
52267;DHT22;38223;50.940;4.034;2022-08-14T11:50:20;32.10;39.50
52267;DHT22;38223;50.940;4.034;2022-08-14T11:52:52;31.90;40.10
52267;DHT22;38223;50.940;4.034;2022-08-14T11:55:25;32.00;39.70
52267;DHT22;38223;50.940;4.034;2022-08-14T11:58:10;31.90;39.80
52267;DHT22;38223;50.940;4.034;2022-08-14T12:00:56;32.10;39.80
52267;DHT22;38223;50.940;4.034;2022-08-14T12:03:06;32.40;39.20
52267;DHT22;38223;50.940;4.034;2022-08-14T12:05:40;32.20;39.50
52267;DHT22;38223;50.940;4.034;2022-08-14T12:08:10;32.10;39.60
52267;DHT22;38223;50.940;4.034;2022-08-14T12:10:45;32.00;40.20
52267;DHT22;38223;50.940;4.034;2022-08-14T12:13:19;31.80;40.10
52267;DHT22;38223;50.940;4.034;2022-08-14T12:16:01;31.60;40.60
52267;DHT22;38223;50.940;4.034;2022-08-14T12:18:34;31.10;40.90
52267;DHT22;38223;50.940;4.034;2022-08-14T12:21:18;31.00;41.30
52267;DHT22;38223;50.940;4.034;2022-08-14T12:24:04;31.00;41.40
52267;DHT22;38223;50.940;4.034;2022-08-14T12:26:34;31.50;39.40
52267;DHT22;38223;50.940;4.034;2022-08-14T12:29:13;31.70;39.30
52267;DHT22;38223;50.940;4.034;2022-08-14T12:31:44;31.70;38.50
52267;DHT22;38223;50.940;4.034;2022-08-14T12:34:14;31.70;38.70
52267;DHT22;38223;50.940;4.034;2022-08-14T12:36:47;31.70;39.00
52267;DHT22;38223;50.940;4.034;2022-08-14T12:39:19;32.10;38.20
52267;DHT22;38223;50.940;4.034;2022-08-14T12:41:55;32.40;38.10
52267;DHT22;38223;50.940;4.034;2022-08-14T12:44:29;32.50;37.70
52267;DHT22;38223;50.940;4.034;2022-08-14T12:47:10;32.30;37.90
52267;DHT22;38223;50.940;4.034;2022-08-14T12:52:34;32.10;38.60
52267;DHT22;38223;50.940;4.034;2022-08-14T12:55:04;32.30;38.40
52267;DHT22;38223;50.940;4.034;2022-08-14T12:57:39;32.70;37.00
52267;DHT22;38223;50.940;4.034;2022-08-14T13:00:11;32.70;36.10
52267;DHT22;38223;50.940;4.034;2022-08-14T13:02:49;32.80;35.70
52267;DHT22;38223;50.940;4.034;2022-08-14T13:05:23;32.60;35.70
52267;DHT22;38223;50.940;4.034;2022-08-14T13:07:57;32.20;36.60
52267;DHT22;38223;50.940;4.034;2022-08-14T13:10:30;32.00;36.80
52267;DHT22;38223;50.940;4.034;2022-08-14T13:13:05;31.80;37.10
52267;DHT22;38223;50.940;4.034;2022-08-14T13:15:36;31.70;37.00
52267;DHT22;38223;50.940;4.034;2022-08-14T13:18:10;31.90;37.20
52267;DHT22;38223;50.940;4.034;2022-08-14T13:20:39;31.90;37.60
52267;DHT22;38223;50.940;4.034;2022-08-14T13:23:11;32.20;36.90
52267;DHT22;38223;50.940;4.034;2022-08-14T13:25:47;32.40;36.50
52267;DHT22;38223;50.940;4.034;2022-08-14T13:28:19;32.20;36.90
52267;DHT22;38223;50.940;4.034;2022-08-14T13:30:56;32.50;36.70
52267;DHT22;38223;50.940;4.034;2022-08-14T13:33:28;32.40;36.70
52267;DHT22;38223;50.940;4.034;2022-08-14T13:35:57;32.60;36.50
52267;DHT22;38223;50.940;4.034;2022-08-14T13:38:30;32.80;36.20
52267;DHT22;38223;50.940;4.034;2022-08-14T13:41:01;32.90;35.80
52267;DHT22;38223;50.940;4.034;2022-08-14T13:43:33;32.90;36.70
52267;DHT22;38223;50.940;4.034;2022-08-14T13:48:54;33.00;36.80
52267;DHT22;38223;50.940;4.034;2022-08-14T13:51:29;33.10;36.70
52267;DHT22;38223;50.940;4.034;2022-08-14T13:54:01;32.90;36.80
52267;DHT22;38223;50.940;4.034;2022-08-14T13:56:39;33.00;36.60
52267;DHT22;38223;50.940;4.034;2022-08-14T13:59:11;33.00;36.50
52267;DHT22;38223;50.940;4.034;2022-08-14T14:01:46;32.60;36.60
52267;DHT22;38223;50.940;4.034;2022-08-14T14:04:17;32.50;36.70
52267;DHT22;38223;50.940;4.034;2022-08-14T14:06:49;32.40;37.10
52267;DHT22;38223;50.940;4.034;2022-08-14T14:09:25;32.30;36.80
52267;DHT22;38223;50.940;4.034;2022-08-14T14:11:59;32.40;37.30
52267;DHT22;38223;50.940;4.034;2022-08-14T14:14:30;32.80;36.60
52267;DHT22;38223;50.940;4.034;2022-08-14T14:17:02;33.00;36.70
52267;DHT22;38223;50.940;4.034;2022-08-14T14:19:31;33.40;36.30
52267;DHT22;38223;50.940;4.034;2022-08-14T14:22:03;33.60;35.20
52267;DHT22;38223;50.940;4.034;2022-08-14T14:24:36;33.70;35.50
52267;DHT22;38223;50.940;4.034;2022-08-14T14:27:13;33.70;35.00
52267;DHT22;38223;50.940;4.034;2022-08-14T14:29:48;33.50;35.30
52267;DHT22;38223;50.940;4.034;2022-08-14T14:32:18;33.30;36.10
52267;DHT22;38223;50.940;4.034;2022-08-14T14:34:52;33.40;36.00
52267;DHT22;38223;50.940;4.034;2022-08-14T14:37:23;33.40;35.90
52267;DHT22;38223;50.940;4.034;2022-08-14T14:39:59;33.50;35.60
52267;DHT22;38223;50.940;4.034;2022-08-14T14:42:28;33.50;35.70
52267;DHT22;38223;50.940;4.034;2022-08-14T14:45:07;33.60;35.90
52267;DHT22;38223;50.940;4.034;2022-08-14T14:47:36;33.60;35.40
52267;DHT22;38223;50.940;4.034;2022-08-14T14:50:14;33.70;35.50
52267;DHT22;38223;50.940;4.034;2022-08-14T14:52:43;33.70;35.30
52267;DHT22;38223;50.940;4.034;2022-08-14T14:55:16;33.90;35.00
52267;DHT22;38223;50.940;4.034;2022-08-14T14:57:48;33.90;34.60
52267;DHT22;38223;50.940;4.034;2022-08-14T15:00:20;33.90;35.30
52267;DHT22;38223;50.940;4.034;2022-08-14T15:02:53;33.80;35.40
52267;DHT22;38223;50.940;4.034;2022-08-14T15:05:24;33.80;35.10
52267;DHT22;38223;50.940;4.034;2022-08-14T15:07:56;33.70;35.30
52267;DHT22;38223;50.940;4.034;2022-08-14T15:10:30;33.60;35.20
52267;DHT22;38223;50.940;4.034;2022-08-14T15:13:03;33.40;35.60
52267;DHT22;38223;50.940;4.034;2022-08-14T15:15:35;33.30;35.80
52267;DHT22;38223;50.940;4.034;2022-08-14T15:18:08;33.30;36.10
52267;DHT22;38223;50.940;4.034;2022-08-14T15:20:42;33.20;35.90
52267;DHT22;38223;50.940;4.034;2022-08-14T15:23:16;33.10;36.30
52267;DHT22;38223;50.940;4.034;2022-08-14T15:25:50;33.10;36.50
52267;DHT22;38223;50.940;4.034;2022-08-14T15:28:22;33.20;36.20
52267;DHT22;38223;50.940;4.034;2022-08-14T15:30:57;33.20;35.90
52267;DHT22;38223;50.940;4.034;2022-08-14T15:33:29;32.90;36.30
52267;DHT22;38223;50.940;4.034;2022-08-14T15:36:17;32.90;36.40
52267;DHT22;38223;50.940;4.034;2022-08-14T15:38:47;33.10;36.30
52267;DHT22;38223;50.940;4.034;2022-08-14T15:41:16;33.10;36.40
52267;DHT22;38223;50.940;4.034;2022-08-14T15:43:47;33.20;36.50
52267;DHT22;38223;50.940;4.034;2022-08-14T15:46:18;33.10;36.40
52267;DHT22;38223;50.940;4.034;2022-08-14T15:48:50;33.10;36.50
52267;DHT22;38223;50.940;4.034;2022-08-14T15:51:25;33.10;36.70
52267;DHT22;38223;50.940;4.034;2022-08-14T15:53:58;33.10;36.90
52267;DHT22;38223;50.940;4.034;2022-08-14T15:56:32;33.10;36.60
52267;DHT22;38223;50.940;4.034;2022-08-14T15:59:02;33.10;36.60
52267;DHT22;38223;50.940;4.034;2022-08-14T16:01:34;33.10;36.70
52267;DHT22;38223;50.940;4.034;2022-08-14T16:04:05;33.10;36.10
52267;DHT22;38223;50.940;4.034;2022-08-14T16:06:36;33.10;36.10
52267;DHT22;38223;50.940;4.034;2022-08-14T16:09:06;33.00;36.10
52267;DHT22;38223;50.940;4.034;2022-08-14T16:11:36;32.90;36.90
52267;DHT22;38223;50.940;4.034;2022-08-14T16:14:09;33.00;37.10
52267;DHT22;38223;50.940;4.034;2022-08-14T16:16:44;33.00;37.80
52267;DHT22;38223;50.940;4.034;2022-08-14T16:19:16;33.00;39.10
52267;DHT22;38223;50.940;4.034;2022-08-14T16:21:50;32.80;39.40
52267;DHT22;38223;50.940;4.034;2022-08-14T16:24:24;32.80;39.70
52267;DHT22;38223;50.940;4.034;2022-08-14T16:26:53;32.70;39.80
52267;DHT22;38223;50.940;4.034;2022-08-14T16:29:33;32.70;39.50